createdAt,value
2019-05-20T00:01:42.138Z,15.51
2019-05-20T00:04:12.289Z,15.49
2019-05-20T00:06:42.453Z,15.48
2019-05-20T00:09:12.719Z,15.45
2019-05-20T00:11:42.863Z,15.42
2019-05-20T00:14:13.130Z,15.41
2019-05-20T00:16:49.050Z,15.38
2019-05-20T00:19:19.280Z,15.35
2019-05-20T00:21:49.440Z,15.30
2019-05-20T00:24:19.608Z,15.27
2019-05-20T00:26:49.761Z,15.21
2019-05-20T00:29:20.106Z,15.14
2019-05-20T00:31:50.341Z,15.09
2019-05-20T00:34:34.234Z,15.03
2019-05-20T00:36:52.476Z,14.98
2019-05-20T00:39:22.693Z,14.93
2019-05-20T00:41:52.934Z,14.88
2019-05-20T00:44:23.078Z,14.80
2019-05-20T00:46:53.174Z,14.78
2019-05-20T00:49:23.365Z,14.73
2019-05-20T00:51:53.632Z,14.70
2019-05-20T00:54:23.945Z,14.67
2019-05-20T00:56:54.421Z,14.63
2019-05-20T00:59:24.648Z,14.60
2019-05-20T01:01:54.804Z,14.58
2019-05-20T01:04:24.977Z,14.55
2019-05-20T01:09:29.901Z,14.51
2019-05-20T01:12:00.176Z,14.42
2019-05-20T01:14:30.538Z,14.36
2019-05-20T01:17:01.666Z,14.33
2019-05-20T01:19:32.500Z,14.31
2019-05-20T01:22:03.015Z,14.28
2019-05-20T01:24:33.419Z,14.26
2019-05-20T01:27:03.707Z,14.27
2019-05-20T01:29:34.213Z,14.24
2019-05-20T01:32:04.651Z,14.23
2019-05-20T01:34:35.144Z,14.22
2019-05-20T01:37:05.618Z,14.22
2019-05-20T01:39:35.993Z,14.22
2019-05-20T01:42:07.319Z,14.22
2019-05-20T01:44:37.544Z,14.22
2019-05-20T01:47:07.862Z,14.22
2019-05-20T01:49:38.632Z,14.23
2019-05-20T01:52:09.389Z,14.22
2019-05-20T01:54:39.789Z,14.20
2019-05-20T01:57:10.374Z,14.18
2019-05-20T01:59:40.682Z,14.17
2019-05-20T02:02:11.409Z,14.15
2019-05-20T02:04:41.818Z,14.14
2019-05-20T02:07:12.383Z,14.13
2019-05-20T02:09:43.109Z,14.13
2019-05-20T02:12:13.804Z,14.13
2019-05-20T02:14:50.013Z,14.14
2019-05-20T02:17:20.501Z,14.18
2019-05-20T02:19:51.116Z,14.20
2019-05-20T02:22:21.782Z,14.22
2019-05-20T02:24:52.129Z,14.21
2019-05-20T02:27:22.592Z,14.19
2019-05-20T02:29:53.038Z,14.15
2019-05-20T02:32:23.512Z,14.11
2019-05-20T02:34:53.631Z,14.07
2019-05-20T02:37:24.024Z,14.02
2019-05-20T02:39:54.605Z,13.99
2019-05-20T02:42:25.080Z,13.94
2019-05-20T02:44:55.572Z,13.92
2019-05-20T02:47:32.649Z,13.90
2019-05-20T02:50:11.091Z,13.89
2019-05-20T02:52:41.640Z,13.93
2019-05-20T02:55:12.069Z,14.02
2019-05-20T02:57:42.399Z,14.11
2019-05-20T03:00:12.955Z,14.18
2019-05-20T03:02:43.343Z,14.25
2019-05-20T03:05:13.940Z,14.32
2019-05-20T03:07:44.273Z,14.36
2019-05-20T03:10:14.908Z,14.41
2019-05-20T03:12:45.298Z,14.44
2019-05-20T03:15:15.863Z,14.46
2019-05-20T03:17:46.294Z,14.52
2019-05-20T03:20:16.872Z,14.56
2019-05-20T03:22:47.435Z,14.58
2019-05-20T03:25:17.886Z,14.65
2019-05-20T03:27:48.529Z,14.68
2019-05-20T03:30:18.940Z,14.69
2019-05-20T03:32:49.345Z,14.70
2019-05-20T03:35:19.782Z,14.72
2019-05-20T03:37:50.390Z,14.75
2019-05-20T03:40:20.990Z,14.80
2019-05-20T03:42:51.590Z,14.86
2019-05-20T03:45:21.882Z,14.87
2019-05-20T03:47:52.886Z,14.91
2019-05-20T03:50:23.492Z,14.91
2019-05-20T03:52:54.109Z,14.90
2019-05-20T03:55:24.418Z,14.87
2019-05-20T03:57:54.895Z,14.86
2019-05-20T04:00:44.451Z,14.87
2019-05-20T04:03:15.708Z,14.87
2019-05-20T04:05:46.402Z,14.85
2019-05-20T04:08:16.665Z,14.86
2019-05-20T04:10:46.965Z,14.89
2019-05-20T04:13:17.346Z,14.92
2019-05-20T04:15:47.540Z,14.94
2019-05-20T04:18:17.843Z,14.99
2019-05-20T04:20:48.027Z,15.03
2019-05-20T04:23:18.543Z,15.04
2019-05-20T04:25:48.856Z,15.07
2019-05-20T04:28:19.366Z,15.11
2019-05-20T04:30:49.678Z,15.14
2019-05-20T04:33:19.972Z,15.18
2019-05-20T04:35:50.237Z,15.21
2019-05-20T04:38:20.623Z,15.18
2019-05-20T04:40:50.928Z,15.53
2019-05-20T04:43:21.275Z,15.55
2019-05-20T04:45:52.519Z,15.56
2019-05-20T04:48:22.698Z,15.60
2019-05-20T04:50:52.862Z,15.64
2019-05-20T04:53:23.073Z,15.69
2019-05-20T04:55:53.295Z,15.72
2019-05-20T04:58:23.378Z,15.75
2019-05-20T05:00:56.037Z,15.78
2019-05-20T05:03:26.333Z,15.80
2019-05-20T05:05:56.943Z,15.80
2019-05-20T05:08:27.340Z,15.95
2019-05-20T05:10:57.849Z,15.92
2019-05-20T05:13:28.126Z,15.94
2019-05-20T05:15:58.443Z,15.97
2019-05-20T05:18:28.678Z,16.02
2019-05-20T05:20:59.013Z,16.05
2019-05-20T05:23:29.397Z,16.06
2019-05-20T05:25:59.629Z,16.05
2019-05-20T05:28:29.977Z,16.07
2019-05-20T05:31:00.272Z,16.09
2019-05-20T05:33:30.537Z,16.11
2019-05-20T05:36:00.774Z,16.14
2019-05-20T05:38:31.055Z,16.21
2019-05-20T05:41:01.118Z,16.26
2019-05-20T05:43:31.275Z,16.34
2019-05-20T05:46:01.532Z,16.41
2019-05-20T05:48:31.821Z,16.49
2019-05-20T05:51:01.982Z,16.58
2019-05-20T05:53:32.388Z,16.65
2019-05-20T05:56:02.706Z,16.74
2019-05-20T05:58:32.926Z,16.87
2019-05-20T06:01:03.232Z,17.00
2019-05-20T06:03:33.420Z,17.10
2019-05-20T06:06:12.236Z,17.12
2019-05-20T06:08:35.415Z,17.15
2019-05-20T06:11:07.013Z,17.17
2019-05-20T06:13:37.455Z,17.17
2019-05-20T06:16:07.706Z,17.14
2019-05-20T06:18:38.012Z,17.10
2019-05-20T06:21:08.391Z,17.07
2019-05-20T06:23:38.598Z,17.11
2019-05-20T06:26:08.815Z,17.19
2019-05-20T06:28:39.160Z,17.25
2019-05-20T06:31:09.482Z,17.35
2019-05-20T06:33:39.970Z,17.42
2019-05-20T06:36:10.383Z,17.46
2019-05-20T06:38:43.330Z,17.47
2019-05-20T06:41:13.936Z,17.51
2019-05-20T06:43:44.657Z,17.70
2019-05-20T06:46:15.517Z,17.96
2019-05-20T06:48:46.274Z,18.18
2019-05-20T06:51:16.720Z,18.34
2019-05-20T06:53:47.208Z,18.44
2019-05-20T06:56:17.645Z,18.44
2019-05-20T06:58:48.013Z,18.45
2019-05-20T07:01:18.510Z,18.45
2019-05-20T07:03:48.942Z,18.48
2019-05-20T07:06:19.473Z,18.49
2019-05-20T07:08:49.885Z,18.44
2019-05-20T07:11:20.198Z,18.42
2019-05-20T07:13:50.413Z,18.49
2019-05-20T07:16:20.657Z,18.53
2019-05-20T07:18:50.836Z,18.53
2019-05-20T07:21:21.078Z,18.60
2019-05-20T07:23:52.468Z,18.66
2019-05-20T07:26:22.782Z,18.67
2019-05-20T07:28:52.867Z,18.70
2019-05-20T07:31:22.920Z,18.71
2019-05-20T07:33:53.150Z,18.64
2019-05-20T07:36:23.412Z,18.57
2019-05-20T07:38:53.486Z,18.49
2019-05-20T07:41:23.585Z,18.40
2019-05-20T07:43:53.702Z,18.39
2019-05-20T07:46:24.033Z,18.41
2019-05-20T07:48:54.446Z,18.46
2019-05-20T07:51:25.402Z,18.50
2019-05-20T07:53:55.648Z,18.51
2019-05-20T07:56:31.287Z,18.48
2019-05-20T07:59:04.689Z,18.44
2019-05-20T08:01:34.930Z,18.40
2019-05-20T08:04:05.340Z,18.37
2019-05-20T08:06:35.541Z,18.39
2019-05-20T08:09:08.436Z,18.40
2019-05-20T08:11:38.794Z,18.35
2019-05-20T08:14:09.057Z,18.31
2019-05-20T08:16:39.398Z,18.29
2019-05-20T08:19:09.662Z,18.28
2019-05-20T08:21:39.929Z,18.28
2019-05-20T08:24:10.161Z,18.29
2019-05-20T08:26:40.561Z,18.30
2019-05-20T08:29:10.855Z,18.31
2019-05-20T08:31:41.790Z,18.31
2019-05-20T08:34:12.037Z,18.26
2019-05-20T08:36:42.498Z,18.23
2019-05-20T08:39:16.809Z,18.25
2019-05-20T08:41:47.010Z,18.27
2019-05-20T08:44:19.982Z,18.32
2019-05-20T08:46:50.163Z,18.37
2019-05-20T08:49:20.405Z,18.44
2019-05-20T08:51:50.627Z,18.46
2019-05-20T08:54:20.898Z,18.43
2019-05-20T08:56:51.263Z,18.36
2019-05-20T08:59:28.639Z,18.30
2019-05-20T09:01:58.978Z,18.25
2019-05-20T09:04:29.167Z,18.26
2019-05-20T09:06:59.314Z,18.32
2019-05-20T09:09:29.576Z,18.38
2019-05-20T09:11:59.860Z,18.46
2019-05-20T09:14:29.936Z,18.61
2019-05-20T09:17:00.269Z,18.68
2019-05-20T09:19:30.530Z,18.74
2019-05-20T09:22:07.809Z,18.78
2019-05-20T09:24:38.120Z,18.82
2019-05-20T09:27:08.347Z,18.93
2019-05-20T09:29:38.528Z,19.06
2019-05-20T09:32:08.742Z,19.15
2019-05-20T09:34:38.995Z,19.30
2019-05-20T09:37:09.196Z,19.38
2019-05-20T09:39:39.472Z,19.44
2019-05-20T09:42:09.647Z,19.52
2019-05-20T09:44:39.815Z,19.63
2019-05-20T09:47:10.146Z,19.69
2019-05-20T09:49:40.450Z,19.69
2019-05-20T09:52:11.293Z,19.72
2019-05-20T09:54:45.055Z,19.82
2019-05-20T09:57:13.570Z,19.97
2019-05-20T09:59:43.993Z,20.05
2019-05-20T10:02:14.197Z,20.03
2019-05-20T10:04:44.369Z,19.95
2019-05-20T10:07:14.653Z,19.81
2019-05-20T10:09:44.796Z,19.78
2019-05-20T10:12:15.142Z,19.74
2019-05-20T10:14:45.365Z,19.70
2019-05-20T10:17:15.539Z,19.75
2019-05-20T10:22:23.742Z,19.92
2019-05-20T10:24:53.869Z,19.93
2019-05-20T10:27:24.115Z,19.99
2019-05-20T10:29:54.297Z,19.98
2019-05-20T10:32:24.674Z,19.98
2019-05-20T10:34:54.933Z,20.04
2019-05-20T10:37:25.190Z,20.18
2019-05-20T10:39:55.436Z,20.39
2019-05-20T10:42:26.202Z,20.55
2019-05-20T10:44:56.470Z,20.68
2019-05-20T10:47:26.720Z,20.71
2019-05-20T10:49:56.965Z,20.65
2019-05-20T10:52:27.156Z,20.50
2019-05-20T10:54:57.290Z,20.36
2019-05-20T10:57:27.583Z,20.28
2019-05-20T10:59:57.800Z,20.20
2019-05-20T11:02:31.162Z,20.19
2019-05-20T11:05:00.039Z,20.20
2019-05-20T11:07:36.975Z,20.20
2019-05-20T11:10:08.189Z,20.25
2019-05-20T11:12:38.488Z,20.31
2019-05-20T11:15:08.953Z,20.40
2019-05-20T11:17:39.202Z,20.54
2019-05-20T11:20:09.937Z,20.62
2019-05-20T11:22:40.169Z,20.71
2019-05-20T11:25:10.815Z,20.83
2019-05-20T11:27:40.986Z,21.04
2019-05-20T11:30:12.045Z,21.09
2019-05-20T11:32:42.275Z,20.99
2019-05-20T11:35:12.782Z,21.02
2019-05-20T11:37:43.035Z,21.01
2019-05-20T11:40:14.167Z,21.13
2019-05-20T11:42:44.766Z,21.35
2019-05-20T11:45:17.916Z,21.56
2019-05-20T11:47:48.054Z,21.55
2019-05-20T11:50:22.253Z,21.45
2019-05-20T11:52:54.882Z,21.36
2019-05-20T11:55:25.488Z,21.24
2019-05-20T11:57:56.061Z,21.06
2019-05-20T12:00:26.512Z,20.97
2019-05-20T12:02:56.847Z,20.86
2019-05-20T12:05:27.716Z,20.78
2019-05-20T12:07:57.784Z,20.73
2019-05-20T12:10:27.934Z,20.71
2019-05-20T12:12:58.101Z,20.61
2019-05-20T12:15:28.338Z,20.44
2019-05-20T12:17:58.666Z,20.34
2019-05-20T12:20:28.776Z,20.29
2019-05-20T12:22:59.376Z,20.38
2019-05-20T12:25:29.719Z,20.60
2019-05-20T12:28:00.021Z,20.86
2019-05-20T12:30:30.299Z,20.99
2019-05-20T12:33:17.975Z,21.12
2019-05-20T12:35:32.483Z,21.15
2019-05-20T12:38:02.640Z,21.13
2019-05-20T12:40:32.997Z,21.14
2019-05-20T12:43:03.258Z,21.13
2019-05-20T12:45:33.526Z,21.20
2019-05-20T12:48:03.850Z,21.39
2019-05-20T12:50:34.196Z,21.49
2019-05-20T12:53:04.609Z,21.48
2019-05-20T12:55:34.896Z,21.35
2019-05-20T12:58:05.114Z,21.29
2019-05-20T13:00:35.488Z,21.24
2019-05-20T13:03:06.891Z,21.27
2019-05-20T13:05:37.265Z,21.29
2019-05-20T13:08:07.615Z,21.35
2019-05-20T13:10:42.376Z,21.40
2019-05-20T13:13:12.684Z,21.47
2019-05-20T13:15:42.904Z,21.58
2019-05-20T13:18:13.238Z,21.70
2019-05-20T13:20:43.791Z,21.84
2019-05-20T13:23:15.598Z,22.05
2019-05-20T13:25:46.293Z,22.19
2019-05-20T13:28:16.602Z,22.41
2019-05-20T13:30:47.553Z,22.44
2019-05-20T13:33:17.726Z,22.30
2019-05-20T13:35:48.043Z,22.12
2019-05-20T13:38:18.211Z,22.03
2019-05-20T13:40:48.438Z,22.25
2019-05-20T13:43:18.831Z,22.87
2019-05-20T13:45:49.124Z,23.46
2019-05-20T13:48:19.456Z,24.09
2019-05-20T13:50:49.723Z,24.53
2019-05-20T13:53:19.952Z,25.07
2019-05-20T13:55:50.308Z,25.62
2019-05-20T13:58:20.637Z,25.96
2019-05-20T14:00:50.951Z,26.17
2019-05-20T14:03:22.435Z,26.26
2019-05-20T14:05:52.622Z,25.95
2019-05-20T14:08:23.046Z,26.12
2019-05-20T14:11:03.743Z,26.58
2019-05-20T14:13:25.854Z,26.60
2019-05-20T14:15:56.112Z,25.98
2019-05-20T14:18:26.349Z,25.33
2019-05-20T14:20:56.556Z,25.02
2019-05-20T14:23:26.838Z,25.31
2019-05-20T14:25:57.174Z,25.43
2019-05-20T14:28:27.535Z,25.36
2019-05-20T14:30:57.702Z,25.06
2019-05-20T14:33:30.800Z,24.86
2019-05-20T14:36:00.989Z,24.51
2019-05-20T14:38:31.253Z,24.18
2019-05-20T14:41:01.537Z,24.26
2019-05-20T14:43:31.728Z,24.82
2019-05-20T14:46:02.005Z,24.80
2019-05-20T14:48:32.242Z,24.74
2019-05-20T14:51:02.521Z,24.81
2019-05-20T14:53:33.005Z,24.76
2019-05-20T14:56:03.289Z,24.78
2019-05-20T14:58:33.700Z,24.32
2019-05-20T15:01:03.891Z,23.89
2019-05-20T15:03:34.220Z,23.51
2019-05-20T15:06:04.774Z,23.28
2019-05-20T15:08:35.430Z,23.17
2019-05-20T15:11:07.045Z,22.98
2019-05-20T15:13:37.574Z,22.92
2019-05-20T15:16:08.221Z,22.75
2019-05-20T15:18:39.060Z,22.50
2019-05-20T15:21:09.714Z,22.14
2019-05-20T15:23:40.347Z,21.91
2019-05-20T15:26:10.941Z,21.88
2019-05-20T15:28:41.475Z,22.11
2019-05-20T15:31:12.126Z,21.99
2019-05-20T15:33:42.664Z,22.02
2019-05-20T15:36:13.212Z,21.93
2019-05-20T15:38:43.812Z,21.58
2019-05-20T15:41:29.753Z,21.21
2019-05-20T15:44:00.502Z,20.82
2019-05-20T15:46:31.032Z,20.50
2019-05-20T15:49:01.707Z,20.34
2019-05-20T15:51:32.256Z,20.11
2019-05-20T15:54:02.712Z,19.89
2019-05-20T15:56:33.314Z,19.72
2019-05-20T15:59:04.002Z,19.49
2019-05-20T16:01:34.709Z,19.29
2019-05-20T16:04:05.275Z,19.16
2019-05-20T16:06:35.902Z,19.02
2019-05-20T16:09:08.327Z,18.85
2019-05-20T16:11:38.798Z,18.77
2019-05-20T16:14:09.941Z,18.65
2019-05-20T16:16:40.607Z,18.49
2019-05-20T16:19:11.270Z,18.34
2019-05-20T16:21:41.981Z,18.25
2019-05-20T16:24:12.751Z,18.19
2019-05-20T16:26:43.387Z,18.09
2019-05-20T16:29:13.948Z,18.03
2019-05-20T16:31:44.496Z,18.02
2019-05-20T16:34:15.038Z,17.98
2019-05-20T16:36:45.696Z,17.90
2019-05-20T16:39:16.819Z,17.82
2019-05-20T16:41:47.526Z,17.79
2019-05-20T16:44:18.158Z,17.82
2019-05-20T16:46:48.936Z,17.88
2019-05-20T16:49:24.328Z,17.96
2019-05-20T16:51:54.861Z,18.07
2019-05-20T16:54:25.945Z,18.13
2019-05-20T16:56:56.635Z,18.11
2019-05-20T16:59:27.444Z,18.17
2019-05-20T17:01:58.011Z,18.17
2019-05-20T17:04:28.735Z,18.16
2019-05-20T17:06:59.602Z,18.17
2019-05-20T17:09:30.210Z,18.20
2019-05-20T17:12:00.864Z,18.22
2019-05-20T17:14:31.528Z,18.11
2019-05-20T17:17:02.010Z,18.11
2019-05-20T17:19:43.987Z,18.12
2019-05-20T17:22:14.683Z,18.15
2019-05-20T17:24:45.490Z,18.06
2019-05-20T17:27:16.038Z,17.94
2019-05-20T17:29:46.635Z,17.84
2019-05-20T17:32:17.410Z,17.74
2019-05-20T17:34:48.123Z,17.66
2019-05-20T17:37:18.899Z,17.58
2019-05-20T17:39:49.604Z,17.55
2019-05-20T17:42:20.237Z,17.53
2019-05-20T17:52:16.563Z,17.59
2019-05-20T17:54:47.128Z,17.55
2019-05-20T17:57:17.723Z,17.50
2019-05-20T17:59:48.236Z,17.50
2019-05-20T18:02:19.269Z,17.52
2019-05-20T18:04:49.897Z,17.51
2019-05-20T18:07:20.399Z,17.55
2019-05-20T18:09:52.757Z,17.52
2019-05-20T18:12:23.283Z,17.58
2019-05-20T18:14:55.671Z,17.57
2019-05-20T18:17:26.260Z,17.54
2019-05-20T18:19:56.791Z,17.50
2019-05-20T18:22:27.385Z,17.44
2019-05-20T18:24:58.002Z,17.46
2019-05-20T18:27:29.371Z,17.44
2019-05-20T18:30:02.875Z,17.41
2019-05-20T18:32:33.374Z,17.33
2019-05-20T18:35:04.124Z,17.20
2019-05-20T18:37:35.139Z,17.17
2019-05-20T18:40:13.785Z,17.12
2019-05-20T18:42:38.380Z,17.08
2019-05-20T18:45:10.065Z,17.02
2019-05-20T18:47:40.764Z,16.93
2019-05-20T18:50:13.563Z,16.88
2019-05-20T18:52:44.718Z,16.85
2019-05-20T18:55:15.325Z,16.80
2019-05-20T18:57:45.975Z,16.80
2019-05-20T19:00:18.936Z,16.80
2019-05-20T19:02:49.470Z,16.79
2019-05-20T19:05:20.182Z,16.82
2019-05-20T19:07:50.916Z,16.83
2019-05-20T19:10:21.437Z,16.77
2019-05-20T19:12:52.380Z,16.76
2019-05-20T19:15:23.014Z,16.72
2019-05-20T19:17:53.866Z,16.72
2019-05-20T19:20:24.780Z,16.69
2019-05-20T19:22:56.686Z,16.70
2019-05-20T19:25:37.398Z,16.69
2019-05-20T19:27:59.893Z,16.63
2019-05-20T19:30:30.465Z,16.57
2019-05-20T19:33:01.067Z,16.49
2019-05-20T19:35:32.599Z,16.41
2019-05-20T19:38:03.366Z,16.32
2019-05-20T19:40:34.404Z,16.27
2019-05-20T19:43:05.053Z,16.24
2019-05-20T19:45:35.604Z,16.18
2019-05-20T19:48:07.612Z,16.16
2019-05-20T19:50:38.255Z,16.13
2019-05-20T19:53:17.967Z,16.17
2019-05-20T19:55:43.903Z,16.18
2019-05-20T19:58:14.538Z,16.21
2019-05-20T20:00:45.048Z,16.22
2019-05-20T20:03:15.983Z,16.24
2019-05-20T20:05:46.625Z,16.20
2019-05-20T20:08:17.290Z,16.24
2019-05-20T20:10:47.856Z,16.29
2019-05-20T20:13:18.454Z,16.38
2019-05-20T20:15:49.135Z,16.38
2019-05-20T20:18:19.812Z,16.36
2019-05-20T20:20:50.299Z,16.32
2019-05-20T20:23:20.980Z,16.27
2019-05-20T20:25:51.399Z,16.23
2019-05-20T20:28:21.962Z,16.20
2019-05-20T20:30:52.517Z,16.17
2019-05-20T20:33:23.149Z,16.11
2019-05-20T20:35:53.657Z,16.07
2019-05-20T20:38:24.132Z,15.99
2019-05-20T20:40:54.929Z,15.95
2019-05-20T20:43:26.087Z,15.90
2019-05-20T20:45:56.770Z,15.82
2019-05-20T20:48:27.621Z,15.75
2019-05-20T20:50:58.334Z,15.71
2019-05-20T20:53:28.834Z,15.69
2019-05-20T20:55:59.466Z,15.63
2019-05-20T20:58:30.164Z,15.63
2019-05-20T21:01:01.291Z,15.61
2019-05-20T21:03:31.732Z,15.53
2019-05-20T21:06:02.616Z,15.51
2019-05-20T21:08:33.350Z,15.46
2019-05-20T21:11:03.969Z,15.43
2019-05-20T21:13:34.575Z,15.41
2019-05-20T21:16:05.129Z,15.40
2019-05-20T21:18:35.728Z,15.37
2019-05-20T21:21:06.924Z,15.41
2019-05-20T21:23:38.110Z,15.39
2019-05-20T21:26:08.991Z,15.43
2019-05-20T21:28:39.474Z,15.46
2019-05-20T21:31:10.047Z,15.42
2019-05-20T21:33:42.729Z,15.39
2019-05-20T21:36:13.325Z,15.38
2019-05-20T21:38:43.989Z,15.39
2019-05-20T21:41:14.494Z,15.38
2019-05-20T21:43:45.233Z,15.36
2019-05-20T21:46:16.106Z,15.33
2019-05-20T21:48:46.690Z,15.34
2019-05-20T21:51:16.959Z,15.34
2019-05-20T21:53:47.314Z,15.32
2019-05-20T21:56:17.519Z,15.27
2019-05-20T21:58:47.914Z,15.26
2019-05-20T22:01:18.265Z,15.26
2019-05-20T22:03:48.506Z,15.28
2019-05-20T22:06:19.115Z,15.26
2019-05-20T22:08:49.293Z,15.22
2019-05-20T22:11:19.674Z,15.15
2019-05-20T22:13:49.891Z,15.10
2019-05-20T22:16:20.128Z,15.06
2019-05-20T22:18:50.588Z,15.02
2019-05-20T22:21:25.034Z,15.00
2019-05-20T22:23:58.303Z,15.01
2019-05-20T22:26:28.522Z,15.00
2019-05-20T22:28:58.913Z,14.93
2019-05-20T22:31:29.156Z,14.94
2019-05-20T22:33:59.512Z,14.90
2019-05-20T22:36:29.895Z,14.91
2019-05-20T22:39:00.153Z,14.91
2019-05-20T22:41:30.370Z,14.91
2019-05-20T22:44:00.680Z,14.90
2019-05-20T22:46:30.935Z,14.88
2019-05-20T22:49:01.169Z,14.84
2019-05-20T22:51:31.532Z,14.82
2019-05-20T22:54:08.292Z,14.79
2019-05-20T22:56:38.680Z,14.73
2019-05-20T22:59:08.890Z,14.63
2019-05-20T23:01:39.948Z,14.59
2019-05-20T23:04:10.151Z,14.54
2019-05-20T23:06:40.632Z,14.50
2019-05-20T23:09:12.038Z,14.47
2019-05-20T23:11:43.298Z,14.47
2019-05-20T23:14:13.772Z,14.47
2019-05-20T23:16:44.180Z,14.47
2019-05-20T23:19:14.599Z,14.51
2019-05-20T23:21:44.838Z,14.51
2019-05-20T23:24:15.158Z,14.50
2019-05-20T23:26:45.632Z,14.49
2019-05-20T23:29:16.291Z,14.47
2019-05-20T23:31:46.625Z,14.44
2019-05-20T23:34:17.292Z,14.43
2019-05-20T23:36:47.748Z,14.45
2019-05-20T23:39:18.183Z,14.46
2019-05-20T23:41:48.597Z,14.50
2019-05-20T23:44:19.042Z,14.50
2019-05-20T23:46:49.352Z,14.52
2019-05-20T23:49:19.791Z,14.55
2019-05-20T23:51:50.341Z,14.58
2019-05-20T23:54:20.651Z,14.61
2019-05-20T23:56:51.271Z,14.63
2019-05-20T23:59:21.548Z,14.64
